sensor_id;sensor_type;location;lat;lon;timestamp;P1;durP1;ratioP1;P2;durP2;ratioP2
76801;SDS011;66403;50.832;10.950;2023-01-30T00:03:38;5.85;;;4.57;;
76801;SDS011;66403;50.832;10.950;2023-01-30T00:08:39;7.53;;;3.83;;
76801;SDS011;66403;50.832;10.950;2023-01-30T00:13:39;8.27;;;4.32;;
76801;SDS011;66403;50.832;10.950;2023-01-30T00:18:40;8.38;;;4.13;;
76801;SDS011;66403;50.832;10.950;2023-01-30T00:23:41;8.07;;;4.35;;
76801;SDS011;66403;50.832;10.950;2023-01-30T00:28:42;9.40;;;4.53;;
76801;SDS011;66403;50.832;10.950;2023-01-30T00:33:42;5.55;;;3.20;;
76801;SDS011;66403;50.832;10.950;2023-01-30T00:38:43;7.93;;;4.50;;
76801;SDS011;66403;50.832;10.950;2023-01-30T00:43:43;6.15;;;4.15;;
76801;SDS011;66403;50.832;10.950;2023-01-30T00:49:02;7.10;;;4.32;;
76801;SDS011;66403;50.832;10.950;2023-01-30T00:54:02;8.35;;;5.00;;
76801;SDS011;66403;50.832;10.950;2023-01-30T00:59:04;9.30;;;4.45;;
76801;SDS011;66403;50.832;10.950;2023-01-30T01:04:05;7.03;;;4.30;;
76801;SDS011;66403;50.832;10.950;2023-01-30T01:09:09;5.28;;;3.67;;
76801;SDS011;66403;50.832;10.950;2023-01-30T01:14:10;6.75;;;4.18;;
76801;SDS011;66403;50.832;10.950;2023-01-30T01:19:10;6.70;;;3.83;;
76801;SDS011;66403;50.832;10.950;2023-01-30T01:24:11;5.07;;;2.72;;
76801;SDS011;66403;50.832;10.950;2023-01-30T01:29:14;5.32;;;3.63;;
76801;SDS011;66403;50.832;10.950;2023-01-30T01:34:15;6.75;;;3.50;;
76801;SDS011;66403;50.832;10.950;2023-01-30T01:39:17;7.40;;;3.53;;
76801;SDS011;66403;50.832;10.950;2023-01-30T01:44:18;8.70;;;4.18;;
76801;SDS011;66403;50.832;10.950;2023-01-30T01:49:20;5.90;;;3.90;;
76801;SDS011;66403;50.832;10.950;2023-01-30T01:54:25;5.70;;;2.78;;
76801;SDS011;66403;50.832;10.950;2023-01-30T01:59:41;5.72;;;3.03;;
76801;SDS011;66403;50.832;10.950;2023-01-30T02:04:46;6.35;;;3.78;;
76801;SDS011;66403;50.832;10.950;2023-01-30T02:10:06;8.48;;;3.72;;
76801;SDS011;66403;50.832;10.950;2023-01-30T02:15:08;5.07;;;3.60;;
76801;SDS011;66403;50.832;10.950;2023-01-30T02:31:06;6.18;;;3.45;;
76801;SDS011;66403;50.832;10.950;2023-01-30T02:36:21;6.18;;;3.63;;
76801;SDS011;66403;50.832;10.950;2023-01-30T02:41:43;9.38;;;3.58;;
76801;SDS011;66403;50.832;10.950;2023-01-30T02:52:07;7.38;;;4.50;;
76801;SDS011;66403;50.832;10.950;2023-01-30T02:57:41;5.32;;;3.42;;
76801;SDS011;66403;50.832;10.950;2023-01-30T03:02:46;4.53;;;3.53;;
76801;SDS011;66403;50.832;10.950;2023-01-30T03:08:19;9.23;;;4.65;;
76801;SDS011;66403;50.832;10.950;2023-01-30T03:13:27;8.55;;;4.93;;
76801;SDS011;66403;50.832;10.950;2023-01-30T03:18:29;8.80;;;4.63;;
76801;SDS011;66403;50.832;10.950;2023-01-30T03:23:30;7.65;;;4.45;;
76801;SDS011;66403;50.832;10.950;2023-01-30T03:28:30;8.35;;;4.50;;
76801;SDS011;66403;50.832;10.950;2023-01-30T03:33:31;6.43;;;3.92;;
76801;SDS011;66403;50.832;10.950;2023-01-30T03:38:32;6.60;;;3.75;;
76801;SDS011;66403;50.832;10.950;2023-01-30T03:43:33;7.68;;;3.95;;
76801;SDS011;66403;50.832;10.950;2023-01-30T03:48:36;5.85;;;2.28;;
76801;SDS011;66403;50.832;10.950;2023-01-30T03:53:37;5.18;;;3.05;;
76801;SDS011;66403;50.832;10.950;2023-01-30T03:58:38;5.07;;;3.67;;
76801;SDS011;66403;50.832;10.950;2023-01-30T04:03:55;8.82;;;4.32;;
76801;SDS011;66403;50.832;10.950;2023-01-30T04:08:56;7.53;;;3.30;;
76801;SDS011;66403;50.832;10.950;2023-01-30T04:14:14;6.88;;;4.15;;
76801;SDS011;66403;50.832;10.950;2023-01-30T04:19:34;7.25;;;4.15;;
76801;SDS011;66403;50.832;10.950;2023-01-30T04:24:35;6.78;;;4.13;;
76801;SDS011;66403;50.832;10.950;2023-01-30T04:29:36;6.90;;;4.00;;
76801;SDS011;66403;50.832;10.950;2023-01-30T04:34:40;7.05;;;4.43;;
76801;SDS011;66403;50.832;10.950;2023-01-30T04:39:41;6.88;;;3.70;;
76801;SDS011;66403;50.832;10.950;2023-01-30T04:44:42;10.15;;;4.97;;
76801;SDS011;66403;50.832;10.950;2023-01-30T04:49:50;5.82;;;3.55;;
76801;SDS011;66403;50.832;10.950;2023-01-30T04:54:51;5.90;;;3.40;;
76801;SDS011;66403;50.832;10.950;2023-01-30T04:59:51;2.33;;;1.50;;
76801;SDS011;66403;50.832;10.950;2023-01-30T05:04:52;2.42;;;1.55;;
76801;SDS011;66403;50.832;10.950;2023-01-30T05:09:53;3.75;;;2.58;;
76801;SDS011;66403;50.832;10.950;2023-01-30T05:14:53;5.97;;;3.33;;
76801;SDS011;66403;50.832;10.950;2023-01-30T05:19:53;2.53;;;1.55;;
76801;SDS011;66403;50.832;10.950;2023-01-30T05:24:54;4.40;;;2.65;;
76801;SDS011;66403;50.832;10.950;2023-01-30T05:29:54;5.70;;;3.28;;
76801;SDS011;66403;50.832;10.950;2023-01-30T05:34:55;5.95;;;3.53;;
76801;SDS011;66403;50.832;10.950;2023-01-30T05:39:55;5.07;;;3.10;;
76801;SDS011;66403;50.832;10.950;2023-01-30T05:44:56;7.15;;;4.32;;
76801;SDS011;66403;50.832;10.950;2023-01-30T05:49:56;4.07;;;2.92;;
76801;SDS011;66403;50.832;10.950;2023-01-30T05:54:56;7.30;;;3.72;;
76801;SDS011;66403;50.832;10.950;2023-01-30T05:59:57;6.70;;;3.67;;
76801;SDS011;66403;50.832;10.950;2023-01-30T06:04:57;4.55;;;2.75;;
76801;SDS011;66403;50.832;10.950;2023-01-30T06:09:58;4.18;;;2.85;;
76801;SDS011;66403;50.832;10.950;2023-01-30T06:14:58;3.90;;;2.25;;
76801;SDS011;66403;50.832;10.950;2023-01-30T06:19:59;4.43;;;2.33;;
76801;SDS011;66403;50.832;10.950;2023-01-30T06:25:00;3.20;;;1.75;;
76801;SDS011;66403;50.832;10.950;2023-01-30T06:30:00;3.38;;;1.70;;
76801;SDS011;66403;50.832;10.950;2023-01-30T06:35:01;2.83;;;1.30;;
76801;SDS011;66403;50.832;10.950;2023-01-30T06:40:01;1.80;;;1.42;;
76801;SDS011;66403;50.832;10.950;2023-01-30T06:45:02;2.67;;;1.60;;
76801;SDS011;66403;50.832;10.950;2023-01-30T06:50:02;3.47;;;2.03;;
76801;SDS011;66403;50.832;10.950;2023-01-30T06:55:03;1.83;;;1.25;;
76801;SDS011;66403;50.832;10.950;2023-01-30T07:00:04;3.60;;;1.80;;
76801;SDS011;66403;50.832;10.950;2023-01-30T07:05:07;3.25;;;1.83;;
76801;SDS011;66403;50.832;10.950;2023-01-30T07:10:09;2.47;;;1.88;;
76801;SDS011;66403;50.832;10.950;2023-01-30T07:15:11;3.97;;;2.15;;
76801;SDS011;66403;50.832;10.950;2023-01-30T07:20:11;2.72;;;2.00;;
76801;SDS011;66403;50.832;10.950;2023-01-30T07:25:12;2.92;;;1.83;;
76801;SDS011;66403;50.832;10.950;2023-01-30T07:30:12;1.83;;;0.88;;
76801;SDS011;66403;50.832;10.950;2023-01-30T07:35:13;2.22;;;1.13;;
76801;SDS011;66403;50.832;10.950;2023-01-30T07:40:14;1.67;;;1.00;;
76801;SDS011;66403;50.832;10.950;2023-01-30T07:45:14;1.27;;;1.00;;
76801;SDS011;66403;50.832;10.950;2023-01-30T07:50:15;0.38;;;0.38;;
76801;SDS011;66403;50.832;10.950;2023-01-30T07:55:16;0.70;;;0.60;;
76801;SDS011;66403;50.832;10.950;2023-01-30T08:00:16;1.55;;;0.80;;
76801;SDS011;66403;50.832;10.950;2023-01-30T08:05:17;0.68;;;0.32;;
76801;SDS011;66403;50.832;10.950;2023-01-30T08:10:17;1.15;;;0.75;;
76801;SDS011;66403;50.832;10.950;2023-01-30T08:15:18;2.13;;;0.90;;
76801;SDS011;66403;50.832;10.950;2023-01-30T08:20:18;2.63;;;1.38;;
76801;SDS011;66403;50.832;10.950;2023-01-30T08:25:19;0.95;;;0.63;;
76801;SDS011;66403;50.832;10.950;2023-01-30T08:30:20;1.30;;;0.88;;
76801;SDS011;66403;50.832;10.950;2023-01-30T08:35:21;2.95;;;2.03;;
76801;SDS011;66403;50.832;10.950;2023-01-30T08:40:21;2.13;;;1.17;;
76801;SDS011;66403;50.832;10.950;2023-01-30T08:45:22;2.28;;;1.33;;
76801;SDS011;66403;50.832;10.950;2023-01-30T08:50:22;3.60;;;2.08;;
76801;SDS011;66403;50.832;10.950;2023-01-30T08:55:23;3.00;;;1.95;;
76801;SDS011;66403;50.832;10.950;2023-01-30T09:00:23;2.90;;;1.60;;
76801;SDS011;66403;50.832;10.950;2023-01-30T09:05:24;1.88;;;1.67;;
76801;SDS011;66403;50.832;10.950;2023-01-30T09:10:24;2.45;;;1.52;;
76801;SDS011;66403;50.832;10.950;2023-01-30T09:15:24;3.17;;;2.00;;
76801;SDS011;66403;50.832;10.950;2023-01-30T09:20:25;3.38;;;1.92;;
76801;SDS011;66403;50.832;10.950;2023-01-30T09:25:25;2.92;;;1.92;;
76801;SDS011;66403;50.832;10.950;2023-01-30T09:30:26;1.75;;;1.50;;
76801;SDS011;66403;50.832;10.950;2023-01-30T09:35:26;2.28;;;1.42;;
76801;SDS011;66403;50.832;10.950;2023-01-30T09:40:27;2.45;;;2.00;;
76801;SDS011;66403;50.832;10.950;2023-01-30T09:50:57;3.28;;;1.75;;
76801;SDS011;66403;50.832;10.950;2023-01-30T09:56:04;2.80;;;1.77;;
76801;SDS011;66403;50.832;10.950;2023-01-30T10:01:05;1.75;;;1.35;;
76801;SDS011;66403;50.832;10.950;2023-01-30T10:06:12;1.67;;;1.52;;
76801;SDS011;66403;50.832;10.950;2023-01-30T10:11:21;2.72;;;1.20;;
76801;SDS011;66403;50.832;10.950;2023-01-30T10:22:08;2.92;;;1.77;;
76801;SDS011;66403;50.832;10.950;2023-01-30T10:27:25;1.33;;;0.88;;
76801;SDS011;66403;50.832;10.950;2023-01-30T10:32:29;1.40;;;0.82;;
76801;SDS011;66403;50.832;10.950;2023-01-30T10:37:41;2.05;;;1.27;;
76801;SDS011;66403;50.832;10.950;2023-01-30T10:42:52;1.60;;;1.13;;
76801;SDS011;66403;50.832;10.950;2023-01-30T10:53:21;1.23;;;1.13;;
76801;SDS011;66403;50.832;10.950;2023-01-30T10:58:27;2.00;;;1.40;;
76801;SDS011;66403;50.832;10.950;2023-01-30T11:03:39;4.53;;;1.40;;
76801;SDS011;66403;50.832;10.950;2023-01-30T11:08:43;2.03;;;1.58;;
76801;SDS011;66403;50.832;10.950;2023-01-30T11:13:44;2.88;;;2.10;;
76801;SDS011;66403;50.832;10.950;2023-01-30T11:18:44;1.83;;;1.60;;
76801;SDS011;66403;50.832;10.950;2023-01-30T11:23:47;2.45;;;1.70;;
76801;SDS011;66403;50.832;10.950;2023-01-30T11:28:47;2.22;;;1.55;;
76801;SDS011;66403;50.832;10.950;2023-01-30T11:33:58;2.28;;;1.83;;
76801;SDS011;66403;50.832;10.950;2023-01-30T11:39:20;1.33;;;1.20;;
76801;SDS011;66403;50.832;10.950;2023-01-30T11:44:28;2.15;;;1.08;;
76801;SDS011;66403;50.832;10.950;2023-01-30T11:49:37;2.50;;;1.30;;
76801;SDS011;66403;50.832;10.950;2023-01-30T11:54:40;0.82;;;0.60;;
76801;SDS011;66403;50.832;10.950;2023-01-30T12:04:43;1.13;;;0.87;;
76801;SDS011;66403;50.832;10.950;2023-01-30T12:09:44;1.25;;;0.82;;
76801;SDS011;66403;50.832;10.950;2023-01-30T12:14:45;1.23;;;0.77;;
76801;SDS011;66403;50.832;10.950;2023-01-30T12:25:09;0.88;;;0.77;;
76801;SDS011;66403;50.832;10.950;2023-01-30T12:41:05;3.13;;;1.20;;
76801;SDS011;66403;50.832;10.950;2023-01-30T12:46:16;1.63;;;1.15;;
76801;SDS011;66403;50.832;10.950;2023-01-30T12:51:34;1.98;;;1.15;;
76801;SDS011;66403;50.832;10.950;2023-01-30T13:07:29;2.45;;;1.42;;
76801;SDS011;66403;50.832;10.950;2023-01-30T13:12:44;1.50;;;1.00;;
76801;SDS011;66403;50.832;10.950;2023-01-30T13:18:08;1.33;;;1.02;;
76801;SDS011;66403;50.832;10.950;2023-01-30T13:29:22;2.30;;;1.23;;
76801;SDS011;66403;50.832;10.950;2023-01-30T13:39:34;1.90;;;1.10;;
76801;SDS011;66403;50.832;10.950;2023-01-30T13:44:47;6.88;;;1.17;;
76801;SDS011;66403;50.832;10.950;2023-01-30T13:49:56;2.38;;;1.58;;
76801;SDS011;66403;50.832;10.950;2023-01-30T13:55:05;5.10;;;1.20;;
76801;SDS011;66403;50.832;10.950;2023-01-30T14:10:57;3.55;;;1.45;;
76801;SDS011;66403;50.832;10.950;2023-01-30T14:16:02;7.78;;;1.55;;
76801;SDS011;66403;50.832;10.950;2023-01-30T14:21:11;1.92;;;1.20;;
76801;SDS011;66403;50.832;10.950;2023-01-30T14:26:12;3.47;;;2.03;;
76801;SDS011;66403;50.832;10.950;2023-01-30T14:31:43;3.50;;;1.17;;
76801;SDS011;66403;50.832;10.950;2023-01-30T14:36:46;3.72;;;1.50;;
76801;SDS011;66403;50.832;10.950;2023-01-30T14:42:09;2.58;;;0.70;;
76801;SDS011;66403;50.832;10.950;2023-01-30T14:47:27;1.35;;;1.00;;
76801;SDS011;66403;50.832;10.950;2023-01-30T14:52:35;6.13;;;1.35;;
76801;SDS011;66403;50.832;10.950;2023-01-30T14:57:38;1.98;;;1.10;;
76801;SDS011;66403;50.832;10.950;2023-01-30T15:02:49;5.63;;;1.38;;
76801;SDS011;66403;50.832;10.950;2023-01-30T15:07:52;4.15;;;1.15;;
76801;SDS011;66403;50.832;10.950;2023-01-30T15:13:00;4.85;;;1.42;;
76801;SDS011;66403;50.832;10.950;2023-01-30T15:23:47;3.05;;;1.05;;
76801;SDS011;66403;50.832;10.950;2023-01-30T15:29:10;4.18;;;1.52;;
76801;SDS011;66403;50.832;10.950;2023-01-30T15:34:29;4.20;;;2.15;;
76801;SDS011;66403;50.832;10.950;2023-01-30T15:39:30;6.82;;;1.67;;
76801;SDS011;66403;50.832;10.950;2023-01-30T15:49:59;8.55;;;2.30;;
76801;SDS011;66403;50.832;10.950;2023-01-30T15:55:01;5.22;;;2.05;;
76801;SDS011;66403;50.832;10.950;2023-01-30T16:00:03;5.28;;;1.85;;
76801;SDS011;66403;50.832;10.950;2023-01-30T16:05:16;7.57;;;1.90;;
76801;SDS011;66403;50.832;10.950;2023-01-30T16:15:38;7.35;;;2.08;;
76801;SDS011;66403;50.832;10.950;2023-01-30T16:20:43;2.28;;;1.02;;
76801;SDS011;66403;50.832;10.950;2023-01-30T16:25:45;3.63;;;1.20;;
76801;SDS011;66403;50.832;10.950;2023-01-30T16:30:46;7.05;;;1.52;;
76801;SDS011;66403;50.832;10.950;2023-01-30T16:35:49;3.33;;;1.60;;
76801;SDS011;66403;50.832;10.950;2023-01-30T16:40:49;7.93;;;1.30;;
76801;SDS011;66403;50.832;10.950;2023-01-30T17:01:02;2.78;;;1.45;;
76801;SDS011;66403;50.832;10.950;2023-01-30T17:06:05;5.30;;;1.42;;
76801;SDS011;66403;50.832;10.950;2023-01-30T17:16:36;5.00;;;0.98;;
76801;SDS011;66403;50.832;10.950;2023-01-30T17:21:56;5.78;;;1.15;;
76801;SDS011;66403;50.832;10.950;2023-01-30T17:26:58;2.65;;;0.93;;
76801;SDS011;66403;50.832;10.950;2023-01-30T17:32:00;3.58;;;0.63;;
76801;SDS011;66403;50.832;10.950;2023-01-30T17:37:09;1.70;;;0.85;;
76801;SDS011;66403;50.832;10.950;2023-01-30T17:42:14;4.28;;;0.60;;
76801;SDS011;66403;50.832;10.950;2023-01-30T17:47:17;1.98;;;0.98;;
76801;SDS011;66403;50.832;10.950;2023-01-30T17:52:18;3.10;;;1.02;;
76801;SDS011;66403;50.832;10.950;2023-01-30T17:57:18;3.15;;;0.90;;
76801;SDS011;66403;50.832;10.950;2023-01-30T18:02:19;1.58;;;0.80;;
76801;SDS011;66403;50.832;10.950;2023-01-30T18:07:19;2.92;;;1.00;;
76801;SDS011;66403;50.832;10.950;2023-01-30T18:12:21;2.50;;;1.30;;
76801;SDS011;66403;50.832;10.950;2023-01-30T18:17:21;2.72;;;1.10;;
76801;SDS011;66403;50.832;10.950;2023-01-30T18:22:26;1.15;;;0.77;;
76801;SDS011;66403;50.832;10.950;2023-01-30T18:27:26;6.10;;;0.82;;
76801;SDS011;66403;50.832;10.950;2023-01-30T18:32:27;3.53;;;0.73;;
76801;SDS011;66403;50.832;10.950;2023-01-30T18:37:28;3.70;;;0.90;;
76801;SDS011;66403;50.832;10.950;2023-01-30T18:42:29;1.77;;;0.88;;
76801;SDS011;66403;50.832;10.950;2023-01-30T18:47:29;5.95;;;1.00;;
76801;SDS011;66403;50.832;10.950;2023-01-30T18:52:30;4.38;;;0.55;;
76801;SDS011;66403;50.832;10.950;2023-01-30T18:57:30;0.80;;;0.40;;
76801;SDS011;66403;50.832;10.950;2023-01-30T19:02:31;6.55;;;0.90;;
76801;SDS011;66403;50.832;10.950;2023-01-30T19:07:31;6.60;;;1.08;;
76801;SDS011;66403;50.832;10.950;2023-01-30T19:12:32;4.32;;;1.65;;
76801;SDS011;66403;50.832;10.950;2023-01-30T19:17:51;4.15;;;0.90;;
76801;SDS011;66403;50.832;10.950;2023-01-30T19:22:52;5.13;;;1.17;;
76801;SDS011;66403;50.832;10.950;2023-01-30T19:27:53;4.85;;;0.70;;
76801;SDS011;66403;50.832;10.950;2023-01-30T19:32:54;4.07;;;1.30;;
76801;SDS011;66403;50.832;10.950;2023-01-30T19:37:57;3.33;;;1.25;;
76801;SDS011;66403;50.832;10.950;2023-01-30T19:42:59;7.45;;;1.20;;
76801;SDS011;66403;50.832;10.950;2023-01-30T19:47:59;4.75;;;1.10;;
76801;SDS011;66403;50.832;10.950;2023-01-30T19:53:00;2.30;;;0.88;;
76801;SDS011;66403;50.832;10.950;2023-01-30T19:58:00;7.53;;;1.20;;
76801;SDS011;66403;50.832;10.950;2023-01-30T20:03:02;2.40;;;1.20;;
76801;SDS011;66403;50.832;10.950;2023-01-30T20:08:02;7.03;;;1.60;;
76801;SDS011;66403;50.832;10.950;2023-01-30T20:13:03;6.07;;;2.15;;
76801;SDS011;66403;50.832;10.950;2023-01-30T20:18:03;4.57;;;1.27;;
76801;SDS011;66403;50.832;10.950;2023-01-30T20:23:04;6.38;;;1.52;;
76801;SDS011;66403;50.832;10.950;2023-01-30T20:28:04;7.32;;;1.63;;
76801;SDS011;66403;50.832;10.950;2023-01-30T20:33:04;3.10;;;1.45;;
76801;SDS011;66403;50.832;10.950;2023-01-30T20:38:05;7.60;;;1.70;;
76801;SDS011;66403;50.832;10.950;2023-01-30T20:43:06;7.07;;;1.33;;
76801;SDS011;66403;50.832;10.950;2023-01-30T20:48:07;7.22;;;2.13;;
76801;SDS011;66403;50.832;10.950;2023-01-30T20:53:07;6.22;;;2.08;;
76801;SDS011;66403;50.832;10.950;2023-01-30T20:58:07;4.10;;;1.83;;
76801;SDS011;66403;50.832;10.950;2023-01-30T21:03:09;4.90;;;1.50;;
76801;SDS011;66403;50.832;10.950;2023-01-30T21:08:09;4.20;;;1.65;;
76801;SDS011;66403;50.832;10.950;2023-01-30T21:13:10;6.55;;;1.10;;
76801;SDS011;66403;50.832;10.950;2023-01-30T21:18:11;6.93;;;1.63;;
76801;SDS011;66403;50.832;10.950;2023-01-30T21:23:11;3.78;;;0.95;;
76801;SDS011;66403;50.832;10.950;2023-01-30T21:28:11;9.60;;;1.58;;
76801;SDS011;66403;50.832;10.950;2023-01-30T21:33:15;3.13;;;1.30;;
76801;SDS011;66403;50.832;10.950;2023-01-30T21:38:15;6.25;;;2.05;;
76801;SDS011;66403;50.832;10.950;2023-01-30T21:43:34;9.32;;;2.92;;
76801;SDS011;66403;50.832;10.950;2023-01-30T21:48:35;6.50;;;1.20;;
76801;SDS011;66403;50.832;10.950;2023-01-30T21:53:36;9.98;;;2.17;;
76801;SDS011;66403;50.832;10.950;2023-01-30T21:58:36;3.30;;;1.42;;
76801;SDS011;66403;50.832;10.950;2023-01-30T22:03:36;4.78;;;0.90;;
76801;SDS011;66403;50.832;10.950;2023-01-30T22:08:37;3.58;;;0.93;;
76801;SDS011;66403;50.832;10.950;2023-01-30T22:13:39;4.75;;;1.00;;
76801;SDS011;66403;50.832;10.950;2023-01-30T22:18:41;6.82;;;1.67;;
76801;SDS011;66403;50.832;10.950;2023-01-30T22:23:42;6.13;;;0.90;;
76801;SDS011;66403;50.832;10.950;2023-01-30T22:28:46;5.35;;;1.30;;
76801;SDS011;66403;50.832;10.950;2023-01-30T22:33:48;7.18;;;1.83;;
76801;SDS011;66403;50.832;10.950;2023-01-30T22:38:50;7.32;;;1.20;;
76801;SDS011;66403;50.832;10.950;2023-01-30T22:43:51;1.25;;;0.68;;
76801;SDS011;66403;50.832;10.950;2023-01-30T22:48:54;6.13;;;1.08;;
76801;SDS011;66403;50.832;10.950;2023-01-30T22:53:56;3.75;;;0.90;;
76801;SDS011;66403;50.832;10.950;2023-01-30T22:58:58;4.70;;;0.90;;
76801;SDS011;66403;50.832;10.950;2023-01-30T23:04:00;1.55;;;1.45;;
76801;SDS011;66403;50.832;10.950;2023-01-30T23:09:06;4.75;;;1.05;;
76801;SDS011;66403;50.832;10.950;2023-01-30T23:19:14;8.40;;;1.15;;
76801;SDS011;66403;50.832;10.950;2023-01-30T23:24:16;5.68;;;1.25;;
76801;SDS011;66403;50.832;10.950;2023-01-30T23:29:18;6.05;;;1.55;;
76801;SDS011;66403;50.832;10.950;2023-01-30T23:34:19;4.78;;;0.68;;
76801;SDS011;66403;50.832;10.950;2023-01-30T23:39:19;5.53;;;0.75;;
76801;SDS011;66403;50.832;10.950;2023-01-30T23:44:20;4.03;;;0.63;;
76801;SDS011;66403;50.832;10.950;2023-01-30T23:49:23;4.05;;;1.00;;
76801;SDS011;66403;50.832;10.950;2023-01-30T23:54:24;6.28;;;1.05;;
76801;SDS011;66403;50.832;10.950;2023-01-30T23:59:24;2.83;;;0.60;;
